Saint Charles, Iowa
Current Conditions -  °F | °C
As of 8:35 AM on Friday 24 Oct 2014 (Local Time) from KI75 Reporting Station
Moderate Fog Moderate Fog  
Wind Chill: 59°   Ceiling: 300
Heat Index: 59°   Visibility: 0.25mi
Dew Point: 58°   Wind: 6mph
Humidity: 97%   Direction: 170°S
Pressure: 30"   Gusts: NA
Location:  41.29°N, 93.81°W
Report Text: KI75 241335Z AUTO 17005KT 1/4SM FG OVC003 15/14 A3000 RMK AO2 T01480143
Loading
Personal Weather Stations






























Interactive Weather Map
Tropical Storm Tracking
New forecast layout! Learn more

10-Day Weather Forecast

Advertisements
Track Severe Weather on mobile